createdAt,value
2024-02-29T00:00:27.466Z,126.84
2024-02-29T00:03:34.389Z,129.28
2024-02-29T00:06:40.845Z,129.11
2024-02-29T00:09:50.281Z,147.06
2024-02-29T00:12:56.572Z,151.71
2024-02-29T00:16:03.918Z,143.90
2024-02-29T00:19:09.961Z,137.37
2024-02-29T00:22:16.583Z,143.71
2024-02-29T00:25:25.742Z,149.27
2024-02-29T00:28:32.259Z,151.48
2024-02-29T00:31:38.279Z,144.79
2024-02-29T00:34:45.144Z,141.66
2024-02-29T00:37:51.102Z,144.70
2024-02-29T00:41:00.422Z,155.62
2024-02-29T00:44:06.687Z,150.45
2024-02-29T00:47:15.263Z,155.07
2024-02-29T00:50:21.403Z,158.91
2024-02-29T00:53:28.189Z,160.49
2024-02-29T00:56:36.929Z,170.90
2024-02-29T00:59:44.173Z,166.67
2024-02-29T01:02:50.157Z,164.04
2024-02-29T01:05:57.115Z,157.86
2024-02-29T01:09:03.129Z,159.37
2024-02-29T01:12:12.797Z,160.56
2024-02-29T01:15:20.918Z,157.68
2024-02-29T01:18:27.744Z,153.26
2024-02-29T01:21:33.845Z,157.98
2024-02-29T01:24:40.916Z,160.15
2024-02-29T01:27:49.602Z,174.24
2024-02-29T01:30:56.397Z,162.04
2024-02-29T01:34:02.575Z,158.05
2024-02-29T01:37:09.430Z,170.19
2024-02-29T01:40:19.592Z,161.48
2024-02-29T01:43:30.746Z,161.93
2024-02-29T01:46:36.771Z,158.48
2024-02-29T01:49:44.291Z,154.32
2024-02-29T01:52:50.984Z,155.78
2024-02-29T01:55:58.032Z,161.53
2024-02-29T01:59:08.989Z,159.36
2024-02-29T02:02:16.037Z,161.30
2024-02-29T02:05:22.126Z,158.32
2024-02-29T02:08:31.666Z,158.23
2024-02-29T02:11:37.712Z,161.64
2024-02-29T02:14:47.779Z,159.27
2024-02-29T02:17:53.907Z,163.73
2024-02-29T02:21:03.471Z,166.49
2024-02-29T02:24:09.954Z,168.19
2024-02-29T02:27:16.720Z,163.46
2024-02-29T02:30:22.769Z,168.42
2024-02-29T02:33:29.678Z,163.59
2024-02-29T02:36:38.367Z,166.08
2024-02-29T02:39:45.427Z,175.05
2024-02-29T02:42:51.492Z,180.38
2024-02-29T02:45:58.981Z,166.38
2024-02-29T02:49:05.624Z,168.53
2024-02-29T02:52:15.138Z,181.29
2024-02-29T02:55:21.581Z,194.43
2024-02-29T02:58:28.421Z,200.59
2024-02-29T03:01:35.023Z,202.25
2024-02-29T03:04:41.786Z,192.33
2024-02-29T03:07:50.896Z,189.66
2024-02-29T03:10:58.037Z,198.82
2024-02-29T03:14:04.110Z,198.12
2024-02-29T03:17:10.938Z,200.73
2024-02-29T03:20:17.020Z,198.42
2024-02-29T03:23:26.533Z,205.84
2024-02-29T03:26:32.602Z,198.95
2024-02-29T03:29:39.457Z,202.36
2024-02-29T03:32:45.547Z,204.13
2024-02-29T03:35:52.637Z,208.39
2024-02-29T03:39:01.475Z,206.56
2024-02-29T03:42:08.363Z,209.88
2024-02-29T03:45:14.454Z,212.77
2024-02-29T03:48:21.451Z,201.77
2024-02-29T03:51:27.568Z,208.37
2024-02-29T03:54:37.015Z,207.71
2024-02-29T03:57:43.048Z,213.86
2024-02-29T04:00:50.332Z,207.12
2024-02-29T04:03:56.495Z,204.54
2024-02-29T04:07:03.284Z,203.87
2024-02-29T04:10:13.352Z,203.67
2024-02-29T04:13:21.926Z,206.30
2024-02-29T04:16:28.024Z,204.99
2024-02-29T04:19:34.846Z,203.02
2024-02-29T04:22:40.978Z,198.90
2024-02-29T04:25:50.644Z,198.93
2024-02-29T04:28:56.861Z,200.70
2024-02-29T04:32:08.462Z,195.48
2024-02-29T04:35:14.795Z,199.62
2024-02-29T04:38:21.803Z,198.33
2024-02-29T04:41:30.462Z,197.96
2024-02-29T04:44:37.268Z,197.22
2024-02-29T04:47:44.246Z,192.82
2024-02-29T04:50:51.231Z,199.48
2024-02-29T04:53:57.285Z,199.06
2024-02-29T04:57:06.656Z,199.93
2024-02-29T05:00:14.642Z,191.46
2024-02-29T05:03:22.501Z,191.09
2024-02-29T05:06:29.366Z,179.70
2024-02-29T05:09:36.533Z,174.75
2024-02-29T05:12:50.156Z,171.30
2024-02-29T05:15:56.990Z,167.61
2024-02-29T05:19:03.243Z,170.31
2024-02-29T05:22:10.167Z,168.10
2024-02-29T05:25:16.344Z,168.55
2024-02-29T05:28:25.730Z,171.61
2024-02-29T05:31:32.432Z,170.50
2024-02-29T05:34:39.204Z,169.04
2024-02-29T05:37:45.710Z,166.03
2024-02-29T05:40:52.582Z,165.98
2024-02-29T05:44:01.590Z,162.71
2024-02-29T05:47:09.359Z,164.19
2024-02-29T05:50:15.836Z,162.40
2024-02-29T05:53:22.623Z,171.89
2024-02-29T05:56:28.819Z,174.35
2024-02-29T05:59:38.221Z,179.57
2024-02-29T06:02:44.847Z,171.68
2024-02-29T06:05:51.594Z,180.86
2024-02-29T06:08:57.580Z,191.22
2024-02-29T06:12:04.658Z,190.54
2024-02-29T06:15:14.245Z,197.80
2024-02-29T06:18:21.020Z,193.68
2024-02-29T06:21:27.551Z,185.58
2024-02-29T06:24:34.401Z,173.60
2024-02-29T06:27:41.108Z,170.51
2024-02-29T06:30:51.049Z,177.94
2024-02-29T06:33:57.331Z,194.21
2024-02-29T06:37:04.202Z,200.31
2024-02-29T06:40:14.772Z,196.24
2024-02-29T06:43:21.628Z,198.27
2024-02-29T06:46:30.366Z,194.55
2024-02-29T06:49:37.110Z,217.03
2024-02-29T06:52:43.695Z,224.66
2024-02-29T06:55:50.493Z,236.73
2024-02-29T06:58:56.465Z,248.33
2024-02-29T07:02:06.344Z,249.66
2024-02-29T07:05:12.860Z,238.14
2024-02-29T07:08:19.692Z,241.38
2024-02-29T07:11:27.507Z,227.34
2024-02-29T07:14:34.819Z,217.59
2024-02-29T07:17:43.551Z,212.22
2024-02-29T07:20:50.583Z,214.97
2024-02-29T07:23:56.598Z,211.11
2024-02-29T07:27:04.052Z,210.70
2024-02-29T07:30:12.736Z,202.39
2024-02-29T07:33:22.670Z,208.56
2024-02-29T07:36:30.080Z,224.40
2024-02-29T07:39:36.917Z,215.81
2024-02-29T07:42:43.327Z,215.37
2024-02-29T07:45:50.307Z,218.79
2024-02-29T07:48:58.977Z,222.30
2024-02-29T07:52:06.117Z,218.00
2024-02-29T07:55:15.994Z,225.81
2024-02-29T07:58:22.873Z,222.79
2024-02-29T08:01:28.947Z,221.28
2024-02-29T08:04:38.471Z,211.46
2024-02-29T08:07:48.084Z,199.67
2024-02-29T08:10:54.885Z,210.95
2024-02-29T08:14:00.944Z,209.57
2024-02-29T08:17:08.261Z,224.70
2024-02-29T08:20:21.652Z,229.44
2024-02-29T08:23:28.747Z,231.40
2024-02-29T08:26:34.926Z,228.93
2024-02-29T08:29:41.776Z,240.25
2024-02-29T08:32:50.071Z,225.25
2024-02-29T08:35:59.511Z,229.29
2024-02-29T08:39:06.020Z,220.92
2024-02-29T08:42:12.821Z,225.44
2024-02-29T08:45:20.530Z,223.99
2024-02-29T08:48:28.609Z,222.29
2024-02-29T08:51:37.443Z,220.28
2024-02-29T08:54:43.840Z,229.18
2024-02-29T08:57:49.410Z,228.97
2024-02-29T09:00:55.999Z,221.25
2024-02-29T09:04:03.269Z,219.82
2024-02-29T09:07:12.154Z,221.27
2024-02-29T09:10:18.249Z,220.04
2024-02-29T09:13:30.550Z,212.42
2024-02-29T09:16:40.755Z,213.94
2024-02-29T09:19:47.685Z,208.28
2024-02-29T09:22:56.111Z,209.96
2024-02-29T09:26:04.186Z,209.06
2024-02-29T09:29:09.674Z,205.93
2024-02-29T09:32:15.910Z,207.21
2024-02-29T09:35:21.399Z,203.43
2024-02-29T09:38:30.476Z,201.48
2024-02-29T09:41:58.819Z,198.03
2024-02-29T09:45:02.401Z,194.97
2024-02-29T09:48:11.124Z,188.14
2024-02-29T09:51:24.389Z,183.59
2024-02-29T09:54:38.139Z,186.43
2024-02-29T09:57:45.074Z,181.70
2024-02-29T10:00:51.851Z,185.14
2024-02-29T10:03:59.972Z,184.10
2024-02-29T10:07:05.564Z,182.74
2024-02-29T10:10:18.075Z,181.47
2024-02-29T10:13:23.721Z,173.62
2024-02-29T10:16:30.126Z,175.51
2024-02-29T10:19:38.937Z,173.85
2024-02-29T10:22:49.126Z,169.45
2024-02-29T10:25:59.133Z,169.74
2024-02-29T10:29:07.373Z,164.54
2024-02-29T10:32:13.543Z,161.25
2024-02-29T10:35:24.635Z,159.39
2024-02-29T10:38:30.151Z,159.33
2024-02-29T10:41:42.600Z,161.18
2024-02-29T10:44:51.882Z,160.09
2024-02-29T10:48:12.206Z,160.09
2024-02-29T10:51:31.020Z,151.97
2024-02-29T10:54:56.913Z,152.06
2024-02-29T10:58:16.492Z,149.28
2024-02-29T11:01:23.169Z,151.15
2024-02-29T11:04:29.303Z,155.54
2024-02-29T11:07:36.788Z,153.58
2024-02-29T11:10:42.465Z,151.13
2024-02-29T11:13:51.298Z,148.83
2024-02-29T11:16:59.724Z,149.77
2024-02-29T11:20:10.619Z,151.95
2024-02-29T11:23:17.391Z,156.30
2024-02-29T11:26:33.211Z,147.79
2024-02-29T11:29:41.460Z,148.94
2024-02-29T11:32:47.703Z,153.51
2024-02-29T11:35:55.956Z,150.37
2024-02-29T11:39:03.158Z,154.62
2024-02-29T11:42:09.652Z,152.82
2024-02-29T11:45:25.607Z,164.50
2024-02-29T11:48:31.286Z,152.41
2024-02-29T11:51:37.763Z,154.85
2024-02-29T11:54:43.732Z,158.95
2024-02-29T11:57:50.558Z,167.41
2024-02-29T12:00:58.698Z,153.24
2024-02-29T12:04:06.220Z,147.62
2024-02-29T12:07:12.197Z,151.41
2024-02-29T12:10:19.682Z,149.52
2024-02-29T12:13:25.879Z,147.91
2024-02-29T12:16:34.886Z,145.19
2024-02-29T12:19:43.241Z,149.00
2024-02-29T12:22:50.771Z,145.02
2024-02-29T12:25:56.525Z,144.78
2024-02-29T12:29:03.642Z,140.48
2024-02-29T12:32:13.755Z,139.38
2024-02-29T12:35:21.537Z,141.14
2024-02-29T12:38:28.743Z,143.33
2024-02-29T12:41:35.429Z,137.19
2024-02-29T12:44:41.526Z,135.89
2024-02-29T12:47:50.392Z,139.81
2024-02-29T12:50:56.066Z,144.84
2024-02-29T12:54:02.307Z,141.67
2024-02-29T12:57:11.440Z,149.27
2024-02-29T13:00:25.412Z,141.44
2024-02-29T13:03:33.711Z,136.01
2024-02-29T13:06:40.456Z,138.64
2024-02-29T13:09:47.092Z,137.34
2024-02-29T13:13:00.195Z,147.30
2024-02-29T13:16:11.791Z,146.67
2024-02-29T13:19:20.754Z,147.70
2024-02-29T13:22:26.484Z,139.09
2024-02-29T13:25:33.021Z,143.35
2024-02-29T13:28:39.880Z,144.07
2024-02-29T13:31:46.260Z,144.61
2024-02-29T13:34:55.059Z,140.94
2024-02-29T13:38:04.248Z,141.04
2024-02-29T13:41:11.039Z,143.14
2024-02-29T13:44:17.357Z,145.74
2024-02-29T13:47:22.890Z,146.17
2024-02-29T13:50:31.810Z,141.38
2024-02-29T13:53:37.844Z,145.23
2024-02-29T13:56:44.274Z,150.68
2024-02-29T13:59:50.800Z,147.75
2024-02-29T14:02:57.039Z,142.86
2024-02-29T14:06:05.794Z,151.17
2024-02-29T14:09:12.804Z,146.61
2024-02-29T14:12:18.471Z,153.23
2024-02-29T14:15:24.799Z,146.66
2024-02-29T14:18:31.501Z,149.60
2024-02-29T14:21:40.415Z,149.99
2024-02-29T14:24:49.192Z,146.76
2024-02-29T14:27:56.882Z,158.75
2024-02-29T14:31:02.464Z,156.48
2024-02-29T14:34:10.333Z,156.63
2024-02-29T14:37:19.192Z,159.27
2024-02-29T14:40:26.070Z,162.74
2024-02-29T14:43:31.690Z,165.86
2024-02-29T14:46:38.802Z,159.78
2024-02-29T14:49:44.525Z,160.48
2024-02-29T14:52:53.420Z,159.81
2024-02-29T14:55:59.216Z,161.71
2024-02-29T14:59:05.647Z,168.07
2024-02-29T15:02:12.804Z,168.03
2024-02-29T15:05:19.263Z,169.64
2024-02-29T15:08:27.680Z,168.19
2024-02-29T15:11:34.154Z,166.60
2024-02-29T15:14:40.374Z,165.95
2024-02-29T15:17:47.126Z,165.92
2024-02-29T15:20:53.331Z,164.19
2024-02-29T15:24:06.056Z,179.30
2024-02-29T15:27:11.982Z,184.53
2024-02-29T15:30:18.682Z,180.01
2024-02-29T15:33:24.318Z,178.53
2024-02-29T15:36:30.587Z,181.44
2024-02-29T15:39:38.840Z,179.97
2024-02-29T15:42:45.107Z,183.06
2024-02-29T15:45:50.794Z,189.02
2024-02-29T15:48:57.637Z,186.82
2024-02-29T15:52:04.323Z,193.02
2024-02-29T15:55:13.465Z,198.25
2024-02-29T15:58:19.356Z,194.76
2024-02-29T16:01:26.065Z,192.23
2024-02-29T16:04:32.142Z,236.61
2024-02-29T16:07:38.537Z,208.38
2024-02-29T16:10:48.336Z,196.74
2024-02-29T16:13:56.706Z,207.14
2024-02-29T16:17:03.385Z,222.94
2024-02-29T16:20:11.640Z,209.99
2024-02-29T16:23:18.775Z,220.55
2024-02-29T16:26:27.934Z,228.65
2024-02-29T16:29:33.601Z,253.57
2024-02-29T16:32:41.481Z,282.85
2024-02-29T16:35:48.327Z,263.54
2024-02-29T16:38:54.661Z,255.61
2024-02-29T16:42:02.829Z,244.45
2024-02-29T16:45:10.825Z,248.65
2024-02-29T16:48:16.521Z,241.01
2024-02-29T16:51:22.923Z,247.92
2024-02-29T16:54:28.552Z,248.75
2024-02-29T16:57:37.837Z,243.41
2024-02-29T17:00:43.372Z,258.95
2024-02-29T17:03:49.724Z,253.23
2024-02-29T17:06:55.563Z,255.00
2024-02-29T17:10:03.000Z,258.40
2024-02-29T17:13:11.426Z,261.57
2024-02-29T17:16:18.158Z,305.57
2024-02-29T17:19:23.878Z,298.22
2024-02-29T17:22:30.916Z,307.50
2024-02-29T17:25:36.617Z,322.21
2024-02-29T17:28:45.479Z,414.93
2024-02-29T17:31:51.010Z,440.14
2024-02-29T17:34:57.444Z,360.80
2024-02-29T17:38:03.956Z,410.83
2024-02-29T17:41:10.253Z,319.27
2024-02-29T17:44:20.837Z,305.17
2024-02-29T17:47:27.271Z,317.70
2024-02-29T17:50:32.954Z,308.25
2024-02-29T17:53:39.203Z,304.56
2024-02-29T17:56:47.761Z,304.18
2024-02-29T17:59:59.114Z,326.90
2024-02-29T18:03:04.650Z,318.01
2024-02-29T18:06:12.309Z,309.62
2024-02-29T18:09:18.169Z,309.27
2024-02-29T18:12:24.498Z,311.14
2024-02-29T18:15:32.613Z,319.39
2024-02-29T18:18:39.328Z,331.12
2024-02-29T18:21:47.087Z,338.80
2024-02-29T18:24:54.572Z,314.62
2024-02-29T18:28:00.190Z,317.69
2024-02-29T18:31:09.272Z,353.73
2024-02-29T18:34:14.969Z,326.59
2024-02-29T18:37:21.319Z,319.63
2024-02-29T18:40:27.179Z,325.10
2024-02-29T18:43:33.581Z,327.39
2024-02-29T18:46:43.801Z,328.87
2024-02-29T18:49:50.319Z,332.27
2024-02-29T18:52:56.037Z,351.18
2024-02-29T18:56:02.298Z,336.75
2024-02-29T18:59:07.949Z,352.94
2024-02-29T19:02:17.009Z,348.90
2024-02-29T19:05:22.844Z,327.66
2024-02-29T19:08:29.374Z,335.94
2024-02-29T19:11:34.932Z,348.73
2024-02-29T19:14:41.345Z,347.63
2024-02-29T19:17:49.550Z,350.09
2024-02-29T19:20:55.851Z,359.90
2024-02-29T19:24:01.364Z,347.05
2024-02-29T19:27:10.081Z,348.51
2024-02-29T19:30:18.916Z,362.05
2024-02-29T19:33:28.396Z,363.53
2024-02-29T19:36:34.278Z,391.67
2024-02-29T19:39:44.353Z,380.11
2024-02-29T19:42:50.126Z,384.95
2024-02-29T19:45:56.484Z,359.25
2024-02-29T19:49:04.641Z,364.26
2024-02-29T19:52:11.084Z,368.21
2024-02-29T19:55:16.597Z,357.28
2024-02-29T19:58:22.917Z,358.42
2024-02-29T20:01:28.611Z,361.57
2024-02-29T20:04:37.786Z,351.12
2024-02-29T20:07:44.054Z,350.31
2024-02-29T20:10:50.575Z,349.69
2024-02-29T20:13:56.227Z,341.22
2024-02-29T20:17:04.866Z,343.01
2024-02-29T20:20:15.370Z,347.72
2024-02-29T20:23:22.457Z,358.33
2024-02-29T20:26:28.723Z,358.94
2024-02-29T20:29:35.010Z,349.41
2024-02-29T20:32:41.740Z,354.27
2024-02-29T20:35:50.572Z,358.22
2024-02-29T20:38:56.081Z,359.77
2024-02-29T20:42:02.431Z,361.95
2024-02-29T20:45:09.235Z,358.10
2024-02-29T20:48:18.131Z,358.39
2024-02-29T20:51:26.429Z,361.51
2024-02-29T20:54:32.890Z,369.14
2024-02-29T20:57:39.965Z,366.47
2024-02-29T21:00:46.531Z,371.22
2024-02-29T21:03:52.780Z,372.57
2024-02-29T21:07:01.913Z,377.13
2024-02-29T21:10:08.753Z,384.56
2024-02-29T21:13:15.191Z,383.31
2024-02-29T21:16:20.863Z,383.49
2024-02-29T21:19:27.467Z,384.40
2024-02-29T21:22:36.442Z,392.52
2024-02-29T21:25:42.714Z,388.36
2024-02-29T21:28:50.705Z,388.82
2024-02-29T21:31:57.025Z,385.85
2024-02-29T21:35:02.599Z,390.23
2024-02-29T21:38:11.557Z,386.68
2024-02-29T21:41:17.466Z,396.46
2024-02-29T21:44:26.086Z,389.86
2024-02-29T21:47:31.677Z,393.42
2024-02-29T21:50:38.245Z,382.92
2024-02-29T21:53:46.488Z,388.39
2024-02-29T21:56:54.348Z,380.05
2024-02-29T21:59:59.829Z,390.33
2024-02-29T22:03:06.668Z,394.82
2024-02-29T22:06:15.103Z,390.86
2024-02-29T22:09:25.141Z,398.17
2024-02-29T22:12:30.733Z,392.18
2024-02-29T22:15:37.059Z,405.20
2024-02-29T22:18:42.612Z,404.48
2024-02-29T22:21:48.997Z,389.06
2024-02-29T22:24:57.377Z,395.15
2024-02-29T22:28:03.668Z,387.95
2024-02-29T22:31:09.187Z,392.35
2024-02-29T22:34:15.564Z,395.06
2024-02-29T22:37:21.567Z,400.10
2024-02-29T22:40:30.684Z,398.14
2024-02-29T22:43:36.477Z,402.49
2024-02-29T22:46:42.711Z,398.62
2024-02-29T22:49:48.168Z,404.95
2024-02-29T22:52:57.543Z,406.62
2024-02-29T22:56:05.657Z,410.75
2024-02-29T22:59:11.988Z,411.05
2024-02-29T23:02:17.525Z,410.85
2024-02-29T23:05:23.755Z,412.68
2024-02-29T23:08:30.996Z,401.79
2024-02-29T23:11:42.012Z,405.55
2024-02-29T23:14:51.076Z,411.23
2024-02-29T23:17:57.349Z,417.38
2024-02-29T23:21:03.064Z,417.59
2024-02-29T23:24:11.204Z,423.44
2024-02-29T23:27:19.294Z,424.06
2024-02-29T23:30:26.068Z,417.75
2024-02-29T23:33:32.149Z,424.24
2024-02-29T23:36:38.481Z,437.85
2024-02-29T23:39:44.033Z,438.30
2024-02-29T23:42:53.028Z,428.08
2024-02-29T23:45:59.087Z,427.33
2024-02-29T23:49:05.511Z,421.99
2024-02-29T23:52:11.235Z,418.67
2024-02-29T23:55:17.762Z,418.95
2024-02-29T23:58:25.952Z,419.89
